createdAt,value
2017-06-30T00:00:13.852Z,16.22
2017-06-30T00:00:42.079Z,16.1
2017-06-30T00:01:10.212Z,16.13
2017-06-30T00:01:38.222Z,16.14
2017-06-30T00:02:06.449Z,16.16
2017-06-30T00:02:34.673Z,16.17
2017-06-30T00:03:02.886Z,16.22
2017-06-30T00:03:31.222Z,16.18
2017-06-30T00:03:59.370Z,16.33
2017-06-30T00:04:27.402Z,16.32
2017-06-30T00:04:55.532Z,16.26
2017-06-30T00:05:23.585Z,16.34
2017-06-30T00:05:51.742Z,16.27
2017-06-30T00:06:19.787Z,16.29
2017-06-30T00:06:47.904Z,16.33
2017-06-30T00:07:15.890Z,16.26
2017-06-30T00:07:43.908Z,16.33
2017-06-30T00:08:12.135Z,16.26
2017-06-30T00:08:40.459Z,16.33
2017-06-30T00:09:08.484Z,16.33
2017-06-30T00:09:36.637Z,16.33
2017-06-30T00:10:04.759Z,16.29
2017-06-30T00:10:33.011Z,16.29
2017-06-30T00:11:00.949Z,16.26
2017-06-30T00:11:29.018Z,16.33
2017-06-30T00:11:57.218Z,16.27
2017-06-30T00:12:25.305Z,16.33
2017-06-30T00:12:53.550Z,16.3
2017-06-30T00:13:21.731Z,16.4
2017-06-30T00:13:50.098Z,16.3
2017-06-30T00:14:18.282Z,16.33
2017-06-30T00:14:46.404Z,16.39
2017-06-30T00:15:14.650Z,16.3
2017-06-30T00:15:42.603Z,16.34
2017-06-30T00:16:10.763Z,16.29
2017-06-30T00:16:38.733Z,16.26
2017-06-30T00:17:06.945Z,16.32
2017-06-30T00:17:34.984Z,16.33
2017-06-30T00:18:03.133Z,16.26
2017-06-30T00:18:31.153Z,16.26
2017-06-30T00:18:59.288Z,16.36
2017-06-30T00:19:27.336Z,16.22
2017-06-30T00:19:55.472Z,16.22
2017-06-30T00:20:23.619Z,16.21
2017-06-30T00:20:51.657Z,16.16
2017-06-30T00:21:19.835Z,16.16
2017-06-30T00:21:47.957Z,16.1
2017-06-30T00:22:15.928Z,16.07
2017-06-30T00:22:43.985Z,16.16
2017-06-30T00:23:12.071Z,16.16
2017-06-30T00:23:40.206Z,16.08
2017-06-30T00:24:08.346Z,16.04
2017-06-30T00:24:36.540Z,16.08
2017-06-30T00:25:04.764Z,16.14
2017-06-30T00:25:32.789Z,16.08
2017-06-30T00:26:00.802Z,16.11
2017-06-30T00:26:29.022Z,16.13
2017-06-30T00:26:57.128Z,16.11
2017-06-30T00:27:25.285Z,16.02
2017-06-30T00:27:53.395Z,16.18
2017-06-30T00:28:21.425Z,16.17
2017-06-30T00:28:49.792Z,16.14
2017-06-30T00:29:17.910Z,16.07
2017-06-30T00:29:46.113Z,16.13
2017-06-30T00:30:14.353Z,16.1
2017-06-30T00:30:42.342Z,16.13
2017-06-30T00:31:10.421Z,16.11
2017-06-30T00:31:38.464Z,16.14
2017-06-30T00:32:06.712Z,16.11
2017-06-30T00:32:34.833Z,16.11
2017-06-30T00:33:02.947Z,16.14
2017-06-30T00:33:31.125Z,16.11
2017-06-30T00:33:59.366Z,16.11
2017-06-30T00:34:27.595Z,16.08
2017-06-30T00:34:55.684Z,16.14
2017-06-30T00:35:23.751Z,16.16
2017-06-30T00:35:51.806Z,16.14
2017-06-30T00:36:19.883Z,16.17
2017-06-30T00:36:47.973Z,16.08
2017-06-30T00:37:16.091Z,15.99
2017-06-30T00:37:44.110Z,16.1
2017-06-30T00:38:12.326Z,16.13
2017-06-30T00:38:40.437Z,16.02
2017-06-30T00:39:08.823Z,16.07
2017-06-30T00:39:36.963Z,16.02
2017-06-30T00:40:05.093Z,15.98
2017-06-30T00:40:33.327Z,15.96
2017-06-30T00:41:01.271Z,15.98
2017-06-30T00:41:29.503Z,15.88
2017-06-30T00:41:57.572Z,15.88
2017-06-30T00:42:25.786Z,15.89
2017-06-30T00:42:53.998Z,15.86
2017-06-30T00:43:22.178Z,15.8
2017-06-30T00:43:50.203Z,15.86
2017-06-30T00:44:18.422Z,15.86
2017-06-30T00:44:46.567Z,15.86
2017-06-30T00:45:14.709Z,15.83
2017-06-30T00:45:42.919Z,15.89
2017-06-30T00:46:10.960Z,15.83
2017-06-30T00:46:39.085Z,15.88
2017-06-30T00:47:07.186Z,15.83
2017-06-30T00:47:35.313Z,15.89
2017-06-30T00:48:03.462Z,15.88
2017-06-30T00:48:31.685Z,15.84
2017-06-30T00:48:59.909Z,15.86
2017-06-30T00:49:28.309Z,15.88
2017-06-30T00:49:56.394Z,15.86
2017-06-30T00:50:24.520Z,15.91
2017-06-30T00:50:52.471Z,15.89
2017-06-30T00:51:20.700Z,15.83
2017-06-30T00:51:48.899Z,15.84
2017-06-30T00:52:16.908Z,15.73
2017-06-30T00:52:44.974Z,15.78
2017-06-30T00:53:13.162Z,15.8
2017-06-30T00:53:41.336Z,15.65
2017-06-30T00:54:09.614Z,15.65
2017-06-30T00:54:37.831Z,15.7
2017-06-30T00:55:05.948Z,15.67
2017-06-30T00:55:34.156Z,15.74
2017-06-30T00:56:02.248Z,15.67
2017-06-30T00:56:30.290Z,15.6
2017-06-30T00:56:58.406Z,15.6
2017-06-30T00:57:26.498Z,15.63
2017-06-30T00:57:54.589Z,15.65
2017-06-30T00:58:22.741Z,15.71
2017-06-30T00:58:50.899Z,15.77
2017-06-30T00:59:19.132Z,15.77
2017-06-30T00:59:47.385Z,15.78
2017-06-30T01:00:15.562Z,15.75
2017-06-30T01:00:43.768Z,15.73
2017-06-30T01:01:11.986Z,15.84
2017-06-30T01:01:40.085Z,15.84
2017-06-30T01:02:08.337Z,15.77
2017-06-30T01:02:36.548Z,15.74
2017-06-30T01:03:04.759Z,15.75
2017-06-30T01:03:33.000Z,15.73
2017-06-30T01:04:01.102Z,15.74
2017-06-30T01:04:29.353Z,15.74
2017-06-30T01:04:57.554Z,15.77
2017-06-30T01:05:25.527Z,15.77
2017-06-30T01:05:53.776Z,15.8
2017-06-30T01:06:21.927Z,15.73
2017-06-30T01:06:49.977Z,15.67
2017-06-30T01:07:18.100Z,15.7
2017-06-30T01:07:46.322Z,15.74
2017-06-30T01:08:14.438Z,15.71
2017-06-30T01:08:42.540Z,15.67
2017-06-30T01:09:10.730Z,15.63
2017-06-30T01:09:38.924Z,15.73
2017-06-30T01:10:07.025Z,15.65
2017-06-30T01:10:35.224Z,15.74
2017-06-30T01:11:03.493Z,15.63
2017-06-30T01:11:31.458Z,15.59
2017-06-30T01:11:59.447Z,15.71
2017-06-30T01:12:27.514Z,15.68
2017-06-30T01:12:55.644Z,15.67
2017-06-30T01:13:23.730Z,15.58
2017-06-30T01:13:51.762Z,15.49
2017-06-30T01:14:19.948Z,15.55
2017-06-30T01:14:47.861Z,15.53
2017-06-30T01:15:16.074Z,15.6
2017-06-30T01:15:44.110Z,15.58
2017-06-30T01:16:12.146Z,15.55
2017-06-30T01:16:40.409Z,15.51
2017-06-30T01:17:08.569Z,15.51
2017-06-30T01:17:36.754Z,15.49
2017-06-30T01:18:04.989Z,15.6
2017-06-30T01:18:33.018Z,15.55
2017-06-30T01:19:01.222Z,15.51
2017-06-30T01:19:29.476Z,15.62
2017-06-30T01:19:57.675Z,15.55
2017-06-30T01:20:25.728Z,15.58
2017-06-30T01:20:53.971Z,15.58
2017-06-30T01:21:21.998Z,15.49
2017-06-30T01:21:50.142Z,15.6
2017-06-30T01:22:18.200Z,15.59
2017-06-30T01:22:46.307Z,15.51
2017-06-30T01:23:14.496Z,15.53
2017-06-30T01:23:42.594Z,15.52
2017-06-30T01:24:10.535Z,15.45
2017-06-30T01:24:39.061Z,15.4
2017-06-30T01:25:07.059Z,15.47
2017-06-30T01:25:35.267Z,15.37
2017-06-30T01:26:03.464Z,15.51
2017-06-30T01:26:31.418Z,15.47
2017-06-30T01:26:59.472Z,15.53
2017-06-30T01:27:27.660Z,15.53
2017-06-30T01:27:55.880Z,15.52
2017-06-30T01:28:23.976Z,15.45
2017-06-30T01:28:52.181Z,15.45
2017-06-30T01:29:20.347Z,15.47
2017-06-30T01:29:48.623Z,15.44
2017-06-30T01:30:16.801Z,15.43
2017-06-30T01:30:44.932Z,15.51
2017-06-30T01:31:13.150Z,15.37
2017-06-30T01:31:41.256Z,15.45
2017-06-30T01:32:09.279Z,15.44
2017-06-30T01:32:37.226Z,15.41
2017-06-30T01:33:05.367Z,15.31
2017-06-30T01:33:33.590Z,15.37
2017-06-30T01:34:01.756Z,15.41
2017-06-30T01:34:29.834Z,15.35
2017-06-30T01:34:58.166Z,15.35
2017-06-30T01:35:26.715Z,15.35
2017-06-30T01:35:54.878Z,15.3
2017-06-30T01:36:22.873Z,15.34
2017-06-30T01:36:51.056Z,15.37
2017-06-30T01:37:19.229Z,15.37
2017-06-30T01:37:47.335Z,15.35
2017-06-30T01:38:15.383Z,15.43
2017-06-30T01:38:43.565Z,15.33
2017-06-30T01:39:11.806Z,15.38
2017-06-30T01:39:39.894Z,15.31
2017-06-30T01:40:07.977Z,15.34
2017-06-30T01:40:36.042Z,15.47
2017-06-30T01:41:04.237Z,15.44
2017-06-30T01:41:32.378Z,15.41
2017-06-30T01:42:00.634Z,15.38
2017-06-30T01:42:28.756Z,15.35
2017-06-30T01:42:56.891Z,15.37
2017-06-30T01:43:25.114Z,15.51
2017-06-30T01:43:53.337Z,15.44
2017-06-30T01:44:21.557Z,15.43
2017-06-30T01:44:49.836Z,15.45
2017-06-30T01:45:17.864Z,15.58
2017-06-30T01:45:46.100Z,15.56
2017-06-30T01:46:14.309Z,15.56
2017-06-30T01:46:42.421Z,15.55
2017-06-30T01:47:10.634Z,15.51
2017-06-30T01:47:38.663Z,15.59
2017-06-30T01:48:06.908Z,15.63
2017-06-30T01:48:35.002Z,15.62
2017-06-30T01:49:03.193Z,15.6
2017-06-30T01:49:31.257Z,15.71
2017-06-30T01:49:59.491Z,15.75
2017-06-30T01:50:27.617Z,15.65
2017-06-30T01:50:55.805Z,15.71
2017-06-30T01:51:23.922Z,15.7
2017-06-30T01:51:51.940Z,15.67
2017-06-30T01:52:20.185Z,15.65
2017-06-30T01:52:48.411Z,15.62
2017-06-30T01:53:16.630Z,15.71
2017-06-30T01:53:44.840Z,15.67
2017-06-30T01:54:13.059Z,15.71
2017-06-30T01:54:41.090Z,15.67
2017-06-30T01:55:09.206Z,15.67
2017-06-30T01:55:37.345Z,15.71
2017-06-30T01:56:05.538Z,15.67
2017-06-30T01:56:33.655Z,15.74
2017-06-30T01:57:01.821Z,15.7
2017-06-30T01:57:30.000Z,15.73
2017-06-30T01:57:58.212Z,15.73
2017-06-30T01:58:26.386Z,15.77
2017-06-30T01:58:54.488Z,15.73
2017-06-30T01:59:22.715Z,15.7
2017-06-30T01:59:50.739Z,15.71
2017-06-30T02:00:19.062Z,15.67
2017-06-30T02:00:47.203Z,15.63
2017-06-30T02:01:15.408Z,15.65
2017-06-30T02:01:43.633Z,15.71
2017-06-30T02:02:11.891Z,15.73
2017-06-30T02:02:40.052Z,15.58
2017-06-30T02:03:08.160Z,15.63
2017-06-30T02:03:36.319Z,15.63
2017-06-30T02:04:04.505Z,15.58
2017-06-30T02:04:32.687Z,15.65
2017-06-30T02:05:00.802Z,15.58
2017-06-30T02:05:29.097Z,15.58
2017-06-30T02:05:57.292Z,15.51
2017-06-30T02:06:25.331Z,15.56
2017-06-30T02:06:53.443Z,15.58
2017-06-30T02:07:21.552Z,15.56
2017-06-30T02:07:49.751Z,15.62
2017-06-30T02:08:17.775Z,15.53
2017-06-30T02:08:45.849Z,15.53
2017-06-30T02:09:13.867Z,15.62
2017-06-30T02:09:42.101Z,15.58
2017-06-30T02:10:10.229Z,15.62
2017-06-30T02:10:38.372Z,15.59
2017-06-30T02:11:06.539Z,15.6
2017-06-30T02:11:34.629Z,15.62
2017-06-30T02:12:02.837Z,15.63
2017-06-30T02:12:30.795Z,15.67
2017-06-30T02:12:59.039Z,15.58
2017-06-30T02:13:27.050Z,15.67
2017-06-30T02:13:55.188Z,15.6
2017-06-30T02:14:23.325Z,15.58
2017-06-30T02:14:51.329Z,15.53
2017-06-30T02:15:19.723Z,15.53
2017-06-30T02:15:47.830Z,15.45
2017-06-30T02:16:15.924Z,15.47
2017-06-30T02:16:43.774Z,15.47
2017-06-30T02:17:11.806Z,15.53
2017-06-30T02:17:39.914Z,15.37
2017-06-30T02:18:08.049Z,15.49
2017-06-30T02:18:36.156Z,15.44
2017-06-30T02:19:04.285Z,15.45
2017-06-30T02:19:32.460Z,15.47
2017-06-30T02:20:00.717Z,15.34
2017-06-30T02:20:28.954Z,15.41
2017-06-30T02:20:57.167Z,15.4
2017-06-30T02:21:25.394Z,15.33
2017-06-30T02:21:53.491Z,15.34
2017-06-30T02:22:21.725Z,15.45
2017-06-30T02:22:49.795Z,15.37
2017-06-30T02:23:17.988Z,15.35
2017-06-30T02:23:45.994Z,15.4
2017-06-30T02:24:14.204Z,15.4
2017-06-30T02:24:42.306Z,15.47
2017-06-30T02:25:10.378Z,15.4
2017-06-30T02:25:38.731Z,15.38
2017-06-30T02:26:06.875Z,15.33
2017-06-30T02:26:35.100Z,15.33
2017-06-30T02:27:03.115Z,15.27
2017-06-30T02:27:31.241Z,15.3
2017-06-30T02:27:59.418Z,15.4
2017-06-30T02:28:27.653Z,15.37
2017-06-30T02:28:55.766Z,15.4
2017-06-30T02:29:23.876Z,15.37
2017-06-30T02:29:52.084Z,15.34
2017-06-30T02:30:20.326Z,15.38
2017-06-30T02:30:49.110Z,15.37
2017-06-30T02:31:17.049Z,15.33
2017-06-30T02:31:45.052Z,15.35
2017-06-30T02:32:13.115Z,15.34
2017-06-30T02:32:41.594Z,15.31
2017-06-30T02:33:09.605Z,15.34
2017-06-30T02:33:37.792Z,15.33
2017-06-30T02:34:05.821Z,15.34
2017-06-30T02:34:34.035Z,15.34
2017-06-30T02:35:02.018Z,15.47
2017-06-30T02:35:30.302Z,15.35
2017-06-30T02:35:58.337Z,15.38
2017-06-30T02:36:26.353Z,15.35
2017-06-30T02:36:54.484Z,15.41
2017-06-30T02:37:22.547Z,15.34
2017-06-30T02:37:50.634Z,15.34
2017-06-30T02:38:18.590Z,15.4
2017-06-30T02:38:46.589Z,15.37
2017-06-30T02:39:14.738Z,15.47
2017-06-30T02:39:42.890Z,15.38
2017-06-30T02:40:10.934Z,15.38
2017-06-30T02:40:39.144Z,15.43
2017-06-30T02:41:07.297Z,15.37
2017-06-30T02:41:35.522Z,15.4
2017-06-30T02:42:03.637Z,15.38
2017-06-30T02:42:31.802Z,15.38
2017-06-30T02:42:59.880Z,15.37
2017-06-30T02:43:28.051Z,15.37
2017-06-30T02:43:56.180Z,15.35
2017-06-30T02:44:24.298Z,15.41
2017-06-30T02:44:52.503Z,15.43
2017-06-30T02:45:20.610Z,15.4
2017-06-30T02:45:48.995Z,15.4
2017-06-30T02:46:17.108Z,15.35
2017-06-30T02:46:45.305Z,15.41
2017-06-30T02:47:13.322Z,15.37
2017-06-30T02:47:41.384Z,15.4
2017-06-30T02:48:09.613Z,15.35
2017-06-30T02:48:37.726Z,15.37
2017-06-30T02:49:05.745Z,15.33
2017-06-30T02:49:33.859Z,15.27
2017-06-30T02:50:01.868Z,15.43
2017-06-30T02:50:29.999Z,15.33
2017-06-30T02:50:58.060Z,15.33
2017-06-30T02:51:26.193Z,15.4
2017-06-30T02:51:54.449Z,15.47
2017-06-30T02:52:22.521Z,15.34
2017-06-30T02:52:50.748Z,15.38
2017-06-30T02:53:19.013Z,15.41
2017-06-30T02:53:47.233Z,15.31
2017-06-30T02:54:15.328Z,15.27
2017-06-30T02:54:43.489Z,15.34
2017-06-30T02:55:11.665Z,15.33
2017-06-30T02:55:39.910Z,15.38
2017-06-30T02:56:08.045Z,15.33
2017-06-30T02:56:35.954Z,15.3
2017-06-30T02:57:04.147Z,15.3
2017-06-30T02:57:32.343Z,15.27
2017-06-30T02:58:00.500Z,15.25
2017-06-30T02:58:28.554Z,15.33
2017-06-30T02:58:56.785Z,15.27
2017-06-30T02:59:25.021Z,15.33
2017-06-30T02:59:53.142Z,15.27
2017-06-30T03:00:21.369Z,15.25
2017-06-30T03:00:49.708Z,15.27
2017-06-30T03:01:17.743Z,15.3
2017-06-30T03:01:45.971Z,15.25
2017-06-30T03:02:14.223Z,15.12
2017-06-30T03:02:42.420Z,15.2
2017-06-30T03:03:10.448Z,15.12
2017-06-30T03:03:38.576Z,15.16
2017-06-30T03:04:06.488Z,15.08
2017-06-30T03:04:34.513Z,15.07
2017-06-30T03:05:02.739Z,15.02
2017-06-30T03:05:30.800Z,15.04
2017-06-30T03:05:58.910Z,15.02
2017-06-30T03:06:27.039Z,15.01
2017-06-30T03:06:55.176Z,14.97
2017-06-30T03:07:23.354Z,15
2017-06-30T03:07:51.413Z,15.01
2017-06-30T03:08:19.391Z,14.85
2017-06-30T03:08:47.595Z,14.95
2017-06-30T03:09:15.765Z,14.89
2017-06-30T03:09:43.901Z,14.98
2017-06-30T03:10:12.103Z,14.94
2017-06-30T03:10:40.207Z,14.94
2017-06-30T03:11:08.573Z,15
2017-06-30T03:11:36.722Z,14.9
2017-06-30T03:12:04.856Z,15.02
2017-06-30T03:12:32.995Z,14.86
2017-06-30T03:13:01.156Z,15
2017-06-30T03:13:29.019Z,14.89
2017-06-30T03:13:57.545Z,14.93
2017-06-30T03:14:25.680Z,15.01
2017-06-30T03:14:53.883Z,14.98
2017-06-30T03:15:22.123Z,15
2017-06-30T03:15:50.045Z,15.07
2017-06-30T03:16:18.167Z,15.01
2017-06-30T03:16:46.356Z,15.04
2017-06-30T03:17:14.432Z,15.07
2017-06-30T03:17:42.594Z,15
2017-06-30T03:18:10.644Z,15.1
2017-06-30T03:18:38.868Z,15.02
2017-06-30T03:19:07.127Z,15.04
2017-06-30T03:19:35.352Z,15.04
2017-06-30T03:20:03.361Z,15.05
2017-06-30T03:20:31.597Z,15.07
2017-06-30T03:20:59.719Z,15.05
2017-06-30T03:21:27.980Z,15.08
2017-06-30T03:21:56.139Z,15.07
2017-06-30T03:22:24.353Z,15.07
2017-06-30T03:22:52.570Z,15.08
2017-06-30T03:23:20.804Z,15.1
2017-06-30T03:23:48.908Z,15.15
2017-06-30T03:24:16.951Z,15.1
2017-06-30T03:24:45.070Z,15.05
2017-06-30T03:25:13.172Z,15.08
2017-06-30T03:25:41.160Z,15.16
2017-06-30T03:26:09.320Z,15.15
2017-06-30T03:26:37.505Z,15.15
2017-06-30T03:27:05.618Z,15.13
2017-06-30T03:27:33.723Z,15.15
2017-06-30T03:28:01.751Z,15.12
2017-06-30T03:28:29.842Z,15.2
2017-06-30T03:29:24.083Z,15.13
2017-06-30T03:29:52.320Z,15.1
2017-06-30T03:30:20.420Z,15.13
2017-06-30T03:30:49.382Z,15.07
2017-06-30T03:31:17.529Z,15.12
2017-06-30T03:31:45.566Z,15.07
2017-06-30T03:32:13.744Z,15.04
2017-06-30T03:32:41.849Z,15.02
2017-06-30T03:33:10.068Z,15.04
2017-06-30T03:33:38.257Z,15.05
2017-06-30T03:34:06.300Z,15
2017-06-30T03:34:34.532Z,15.04
2017-06-30T03:35:02.723Z,15.01
2017-06-30T03:35:30.954Z,15.02
2017-06-30T03:35:58.937Z,15.01
2017-06-30T03:36:27.083Z,14.98
2017-06-30T03:36:55.209Z,14.98
2017-06-30T03:37:23.321Z,14.9
2017-06-30T03:37:51.417Z,14.98
2017-06-30T03:38:19.563Z,14.89
2017-06-30T03:38:47.452Z,14.97
2017-06-30T03:39:15.665Z,14.97
2017-06-30T03:39:43.880Z,15
2017-06-30T03:40:11.956Z,14.9
2017-06-30T03:40:40.058Z,14.93
2017-06-30T03:41:08.160Z,14.85
2017-06-30T03:41:36.382Z,14.8
2017-06-30T03:42:04.582Z,14.86
2017-06-30T03:42:32.720Z,14.85
2017-06-30T03:43:00.840Z,14.85
2017-06-30T03:43:29.026Z,14.85
2017-06-30T03:43:57.268Z,14.87
2017-06-30T03:44:25.494Z,14.83
2017-06-30T03:44:53.485Z,14.85
2017-06-30T03:45:21.591Z,14.77
2017-06-30T03:45:49.694Z,14.83
2017-06-30T03:46:17.916Z,14.85
2017-06-30T03:46:47.117Z,14.8
2017-06-30T03:47:15.424Z,14.82
2017-06-30T03:47:43.646Z,14.85
2017-06-30T03:48:11.846Z,14.86
2017-06-30T03:48:39.868Z,14.77
2017-06-30T03:49:08.109Z,14.83
2017-06-30T03:49:36.301Z,14.79
2017-06-30T03:50:04.361Z,14.77
2017-06-30T03:50:32.483Z,14.75
2017-06-30T03:51:00.688Z,14.74
2017-06-30T03:51:28.921Z,14.82
2017-06-30T03:51:57.058Z,14.86
2017-06-30T03:52:25.320Z,14.9
2017-06-30T03:52:53.515Z,14.86
2017-06-30T03:53:21.628Z,14.89
2017-06-30T03:53:49.742Z,14.95
2017-06-30T03:54:17.751Z,14.9
2017-06-30T03:54:45.875Z,14.97
2017-06-30T03:55:13.925Z,14.94
2017-06-30T03:55:42.034Z,14.93
2017-06-30T03:56:10.060Z,14.89
2017-06-30T03:56:38.274Z,14.95
2017-06-30T03:57:06.389Z,15
2017-06-30T03:57:34.636Z,14.95
2017-06-30T03:58:02.844Z,14.98
2017-06-30T03:58:30.865Z,14.97
2017-06-30T03:58:59.009Z,14.97
2017-06-30T03:59:27.173Z,14.95
2017-06-30T03:59:55.377Z,14.94
2017-06-30T04:00:23.528Z,14.97
2017-06-30T04:00:51.640Z,14.85
2017-06-30T04:01:19.772Z,14.95
2017-06-30T04:01:47.871Z,14.98
2017-06-30T04:02:16.116Z,14.97
2017-06-30T04:02:44.273Z,14.97
2017-06-30T04:03:13.027Z,14.95
2017-06-30T04:03:41.187Z,14.87
2017-06-30T04:04:09.293Z,14.98
2017-06-30T04:04:37.426Z,14.89
2017-06-30T04:05:05.638Z,14.93
2017-06-30T04:05:33.823Z,14.95
2017-06-30T04:06:02.009Z,14.93
2017-06-30T04:06:30.047Z,14.93
2017-06-30T04:06:58.362Z,14.95
2017-06-30T04:07:26.569Z,14.98
2017-06-30T04:07:54.640Z,14.87
2017-06-30T04:08:22.661Z,14.97
2017-06-30T04:08:50.746Z,14.93
2017-06-30T04:09:18.770Z,14.95
2017-06-30T04:09:46.949Z,14.93
2017-06-30T04:10:15.138Z,14.87
2017-06-30T04:10:43.270Z,14.9
2017-06-30T04:11:11.238Z,14.89
2017-06-30T04:11:39.321Z,14.93
2017-06-30T04:12:07.414Z,14.89
2017-06-30T04:12:35.621Z,14.83
2017-06-30T04:13:03.758Z,14.79
2017-06-30T04:13:31.801Z,14.85
2017-06-30T04:13:59.963Z,14.77
2017-06-30T04:14:28.146Z,14.87
2017-06-30T04:14:56.101Z,14.75
2017-06-30T04:15:24.328Z,14.77
2017-06-30T04:15:52.333Z,14.85
2017-06-30T04:16:20.522Z,14.69
2017-06-30T04:16:48.733Z,14.61
2017-06-30T04:17:16.739Z,14.64
2017-06-30T04:17:44.930Z,14.63
2017-06-30T04:18:13.007Z,14.63
2017-06-30T04:18:41.123Z,14.63
2017-06-30T04:19:09.227Z,14.6
2017-06-30T04:19:37.349Z,14.63
2017-06-30T04:20:05.485Z,14.53
2017-06-30T04:20:33.699Z,14.56
2017-06-30T04:21:01.813Z,14.53
2017-06-30T04:21:30.049Z,14.53
2017-06-30T04:21:58.319Z,14.51
2017-06-30T04:22:26.489Z,14.56
2017-06-30T04:22:54.657Z,14.53
2017-06-30T04:23:22.752Z,14.56
2017-06-30T04:23:50.950Z,14.53
2017-06-30T04:24:19.055Z,14.45
2017-06-30T04:24:47.173Z,14.48
2017-06-30T04:25:15.317Z,14.48
2017-06-30T04:25:43.500Z,14.48
2017-06-30T04:26:11.709Z,14.39
2017-06-30T04:26:39.883Z,14.46
2017-06-30T04:27:08.219Z,14.48
2017-06-30T04:27:36.407Z,14.45
2017-06-30T04:28:04.526Z,14.49
2017-06-30T04:28:32.593Z,14.49
2017-06-30T04:29:00.675Z,14.38
2017-06-30T04:29:28.714Z,14.39
2017-06-30T04:29:56.957Z,14.36
2017-06-30T04:30:25.138Z,14.36
2017-06-30T04:30:53.239Z,14.34
2017-06-30T04:31:21.276Z,14.28
2017-06-30T04:31:49.368Z,14.16
2017-06-30T04:32:17.682Z,14.19
2017-06-30T04:32:45.912Z,14.27
2017-06-30T04:33:13.936Z,14.21
2017-06-30T04:33:41.916Z,14.2
2017-06-30T04:34:09.749Z,14.16
2017-06-30T04:34:37.821Z,14.11
2017-06-30T04:35:06.041Z,14.12
2017-06-30T04:35:34.131Z,14.19
2017-06-30T04:36:02.199Z,14.15
2017-06-30T04:36:30.297Z,14.08
2017-06-30T04:36:58.417Z,14.05
2017-06-30T04:37:26.620Z,14.16
2017-06-30T04:37:54.736Z,14.15
2017-06-30T04:38:22.847Z,14.09
2017-06-30T04:38:50.755Z,14.13
2017-06-30T04:39:18.860Z,14.13
2017-06-30T04:39:47.093Z,14.11
2017-06-30T04:40:15.353Z,14.09
2017-06-30T04:40:43.580Z,14.19
2017-06-30T04:41:11.708Z,14.13
2017-06-30T04:41:39.754Z,14.21
2017-06-30T04:42:08.046Z,14.26
2017-06-30T04:42:36.226Z,14.2
2017-06-30T04:43:04.379Z,14.3
2017-06-30T04:43:32.605Z,14.38
2017-06-30T04:44:00.728Z,14.39
2017-06-30T04:44:28.779Z,14.31
2017-06-30T04:44:56.936Z,14.48
2017-06-30T04:45:24.973Z,14.44
2017-06-30T04:45:53.103Z,14.46
2017-06-30T04:46:21.325Z,14.51
2017-06-30T04:46:49.484Z,14.51
2017-06-30T04:47:17.769Z,14.46
2017-06-30T04:47:45.885Z,14.45
2017-06-30T04:48:14.015Z,14.41
2017-06-30T04:48:42.223Z,14.45
2017-06-30T04:49:10.323Z,14.38
2017-06-30T04:49:38.478Z,14.44
2017-06-30T04:50:06.708Z,14.38
2017-06-30T04:50:34.766Z,14.49
2017-06-30T04:51:02.871Z,14.44
2017-06-30T04:51:31.001Z,14.45
2017-06-30T04:51:58.968Z,14.53
2017-06-30T04:52:27.074Z,14.52
2017-06-30T04:52:55.072Z,14.57
2017-06-30T04:53:23.207Z,14.53
2017-06-30T04:53:51.342Z,14.46
2017-06-30T04:54:19.427Z,14.45
2017-06-30T04:54:47.464Z,14.44
2017-06-30T04:55:15.630Z,14.48
2017-06-30T04:55:43.689Z,14.38
2017-06-30T04:56:11.833Z,14.33
2017-06-30T04:56:39.988Z,14.36
2017-06-30T04:57:07.832Z,14.3
2017-06-30T04:57:36.014Z,14.31
2017-06-30T04:58:04.225Z,14.38
2017-06-30T04:58:32.372Z,14.31
2017-06-30T04:59:00.535Z,14.36
2017-06-30T04:59:28.583Z,14.34
2017-06-30T04:59:56.707Z,14.41
2017-06-30T05:00:24.769Z,14.33
2017-06-30T05:00:52.960Z,14.38
2017-06-30T05:01:21.165Z,14.33
2017-06-30T05:01:49.256Z,14.36
2017-06-30T05:02:17.307Z,14.36
2017-06-30T05:02:45.557Z,14.34
2017-06-30T05:03:13.686Z,14.33
2017-06-30T05:03:41.781Z,14.36
2017-06-30T05:04:09.881Z,14.33
2017-06-30T05:04:38.074Z,14.36
2017-06-30T05:05:06.275Z,14.3
2017-06-30T05:05:34.445Z,14.31
2017-06-30T05:06:02.699Z,14.28
2017-06-30T05:06:30.783Z,14.3
2017-06-30T05:06:58.821Z,14.24
2017-06-30T05:07:27.101Z,14.13
2017-06-30T05:07:55.302Z,14.21
2017-06-30T05:08:23.507Z,14.24
2017-06-30T05:08:51.542Z,14.27
2017-06-30T05:09:19.755Z,14.21
2017-06-30T05:09:47.689Z,14.21
2017-06-30T05:10:15.813Z,14.21
2017-06-30T05:10:43.870Z,14.19
2017-06-30T05:11:12.126Z,14.19
2017-06-30T05:11:40.135Z,14.19
2017-06-30T05:12:08.302Z,14.21
2017-06-30T05:12:36.630Z,14.2
2017-06-30T05:13:04.867Z,14.09
2017-06-30T05:13:33.040Z,14.15
2017-06-30T05:14:01.091Z,14.08
2017-06-30T05:14:29.193Z,14.06
2017-06-30T05:14:57.324Z,14.08
2017-06-30T05:15:25.369Z,14.02
2017-06-30T05:15:53.581Z,14.09
2017-06-30T05:16:21.724Z,13.94
2017-06-30T05:16:49.872Z,14.05
2017-06-30T05:17:17.901Z,14.02
2017-06-30T05:17:46.047Z,14.01
2017-06-30T05:18:14.155Z,13.97
2017-06-30T05:18:42.358Z,13.93
2017-06-30T05:19:10.569Z,13.94
2017-06-30T05:19:38.694Z,13.97
2017-06-30T05:20:06.920Z,13.93
2017-06-30T05:20:35.116Z,13.91
2017-06-30T05:21:03.305Z,13.94
2017-06-30T05:21:31.479Z,13.88
2017-06-30T05:21:59.708Z,13.84
2017-06-30T05:22:27.911Z,13.91
2017-06-30T05:22:56.224Z,13.88
2017-06-30T05:23:24.335Z,13.95
2017-06-30T05:23:52.433Z,13.88
2017-06-30T05:24:20.621Z,13.91
2017-06-30T05:24:48.843Z,13.95
2017-06-30T05:25:17.069Z,13.97
2017-06-30T05:25:44.999Z,13.94
2017-06-30T05:26:13.170Z,13.95
2017-06-30T05:26:41.294Z,14.01
2017-06-30T05:27:09.440Z,13.97
2017-06-30T05:27:37.456Z,14.06
2017-06-30T05:28:05.830Z,14.02
2017-06-30T05:28:34.052Z,14.09
2017-06-30T05:29:02.200Z,14.01
2017-06-30T05:29:30.344Z,13.97
2017-06-30T05:29:58.561Z,13.99
2017-06-30T05:30:26.560Z,13.95
2017-06-30T05:30:54.605Z,13.97
2017-06-30T05:31:22.729Z,13.95
2017-06-30T05:31:50.719Z,13.97
2017-06-30T05:32:18.791Z,13.97
2017-06-30T05:32:47.027Z,13.97
2017-06-30T05:33:15.238Z,13.94
2017-06-30T05:33:43.258Z,14.02
2017-06-30T05:34:11.406Z,13.95
2017-06-30T05:34:39.422Z,13.97
2017-06-30T05:35:07.632Z,13.91
2017-06-30T05:35:35.847Z,13.94
2017-06-30T05:36:03.902Z,13.93
2017-06-30T05:36:32.056Z,13.88
2017-06-30T05:37:00.085Z,13.87
2017-06-30T05:37:28.201Z,13.88
2017-06-30T05:37:56.671Z,13.9
2017-06-30T05:38:24.845Z,13.83
2017-06-30T05:38:52.846Z,13.83
2017-06-30T05:39:20.916Z,13.83
2017-06-30T05:39:49.131Z,13.79
2017-06-30T05:40:17.244Z,13.83
2017-06-30T05:40:45.432Z,13.81
2017-06-30T05:41:13.509Z,13.84
2017-06-30T05:41:41.548Z,13.81
2017-06-30T05:42:09.780Z,13.78
2017-06-30T05:42:37.945Z,13.87
2017-06-30T05:43:06.128Z,13.79
2017-06-30T05:43:34.308Z,13.83
2017-06-30T05:44:02.509Z,13.84
2017-06-30T05:44:30.583Z,13.87
2017-06-30T05:44:58.788Z,13.84
2017-06-30T05:45:26.885Z,13.93
2017-06-30T05:45:54.999Z,13.93
2017-06-30T05:46:23.127Z,13.93
2017-06-30T05:46:51.244Z,13.95
2017-06-30T05:47:19.461Z,13.97
2017-06-30T05:47:47.586Z,14.01
2017-06-30T05:48:15.880Z,13.99
2017-06-30T05:48:44.112Z,14.06
2017-06-30T05:49:12.131Z,14.05
2017-06-30T05:49:40.137Z,14.06
2017-06-30T05:50:08.227Z,14.03
2017-06-30T05:50:36.277Z,14.08
2017-06-30T05:51:04.412Z,14.08
2017-06-30T05:51:32.585Z,13.95
2017-06-30T05:52:00.751Z,13.93
2017-06-30T05:52:28.934Z,13.99
2017-06-30T05:52:57.146Z,13.99
2017-06-30T05:53:25.590Z,13.94
2017-06-30T05:53:53.784Z,14.05
2017-06-30T05:54:21.926Z,14.12
2017-06-30T05:54:50.119Z,14.13
2017-06-30T05:55:18.279Z,14.19
2017-06-30T05:55:46.516Z,14.13
2017-06-30T05:56:14.715Z,14.19
2017-06-30T05:56:42.775Z,14.15
2017-06-30T05:57:10.926Z,14.21
2017-06-30T05:57:38.847Z,14.23
2017-06-30T05:58:07.152Z,14.27
2017-06-30T05:58:35.282Z,14.28
2017-06-30T05:59:03.509Z,14.31
2017-06-30T05:59:31.725Z,14.34
2017-06-30T05:59:59.811Z,14.41
2017-06-30T06:00:28.014Z,14.34
2017-06-30T06:00:56.027Z,14.41
2017-06-30T06:01:24.129Z,14.36
2017-06-30T06:01:52.297Z,14.33
2017-06-30T06:02:20.515Z,14.38
2017-06-30T06:02:48.431Z,14.36
2017-06-30T06:03:16.758Z,14.38
2017-06-30T06:03:44.809Z,14.34
2017-06-30T06:04:12.828Z,14.38